createdAt,value
2019-06-10T04:00:59.617Z,56.25
2019-06-10T04:02:02.171Z,56.25
2019-06-10T04:02:59.951Z,56.25
2019-06-10T04:04:02.205Z,50.63
2019-06-10T04:05:02.571Z,50.63
2019-06-10T04:06:02.455Z,56.25
2019-06-10T04:07:03.724Z,56.25
2019-06-10T04:08:02.130Z,61.88
2019-06-10T04:09:02.863Z,67.50
2019-06-10T04:10:02.277Z,73.13
2019-06-10T04:11:03.046Z,78.75
2019-06-10T04:12:02.087Z,78.75
2019-06-10T04:13:02.576Z,84.38
2019-06-10T04:14:02.367Z,84.38
2019-06-10T04:15:03.133Z,90.00
2019-06-10T04:16:02.554Z,95.63
2019-06-10T04:17:02.816Z,106.88
2019-06-10T04:18:03.884Z,106.88
2019-06-10T04:19:02.807Z,112.50
2019-06-10T04:20:11.447Z,112.50
2019-06-10T04:21:03.092Z,112.50
2019-06-10T04:22:03.261Z,112.50
2019-06-10T04:23:03.436Z,112.50
2019-06-10T04:24:03.611Z,106.88
2019-06-10T04:25:03.782Z,101.25
2019-06-10T04:26:03.957Z,101.25
2019-06-10T04:27:04.130Z,95.63
2019-06-10T04:28:04.302Z,95.63
2019-06-10T04:29:04.479Z,95.63
2019-06-10T04:30:04.652Z,101.25
2019-06-10T04:31:04.826Z,106.88
2019-06-10T04:32:05.001Z,112.50
2019-06-10T04:33:05.179Z,118.13
2019-06-10T04:34:05.349Z,123.75
2019-06-10T04:35:05.521Z,123.75
2019-06-10T04:36:05.695Z,123.75
2019-06-10T04:37:05.869Z,129.38
2019-06-10T04:38:06.041Z,140.63
2019-06-10T04:39:06.217Z,146.25
2019-06-10T04:40:06.392Z,151.88
2019-06-10T04:41:06.565Z,157.50
2019-06-10T04:42:06.739Z,157.50
2019-06-10T04:43:06.914Z,151.88
2019-06-10T04:44:07.085Z,151.88
2019-06-10T04:45:07.262Z,146.25
2019-06-10T04:46:07.437Z,146.25
2019-06-10T04:47:07.612Z,140.63
2019-06-10T04:48:07.785Z,140.63
2019-06-10T04:49:07.957Z,140.63
2019-06-10T04:50:20.912Z,135.00
2019-06-10T04:51:09.339Z,135.00
2019-06-10T04:52:08.504Z,135.00
2019-06-10T04:53:08.678Z,140.63
2019-06-10T04:54:08.850Z,146.25
2019-06-10T04:55:09.025Z,151.88
2019-06-10T04:56:09.197Z,157.50
2019-06-10T04:57:09.372Z,168.75
2019-06-10T04:58:09.545Z,174.38
2019-06-10T04:59:09.717Z,180.00
2019-06-10T05:00:13.840Z,191.25
2019-06-10T05:01:12.006Z,196.88
2019-06-10T05:02:12.667Z,202.50
2019-06-10T05:03:12.139Z,208.13
2019-06-10T05:04:12.534Z,208.13
2019-06-10T05:05:12.908Z,208.13
2019-06-10T05:06:12.406Z,208.13
2019-06-10T05:07:12.602Z,213.75
2019-06-10T05:08:13.143Z,213.75
2019-06-10T05:09:12.423Z,213.75
2019-06-10T05:10:12.405Z,208.13
2019-06-10T05:11:12.824Z,202.50
2019-06-10T05:12:12.197Z,202.50
2019-06-10T05:13:12.188Z,196.88
2019-06-10T05:14:13.227Z,196.88
2019-06-10T05:15:12.701Z,202.50
2019-06-10T05:16:12.842Z,208.13
2019-06-10T05:17:12.943Z,219.38
2019-06-10T05:18:13.202Z,225.00
2019-06-10T05:19:13.287Z,230.63
2019-06-10T05:20:13.462Z,230.63
2019-06-10T05:21:13.635Z,219.38
2019-06-10T05:22:13.812Z,213.75
2019-06-10T05:23:13.984Z,202.50
2019-06-10T05:24:14.156Z,196.88
2019-06-10T05:25:14.331Z,202.50
2019-06-10T05:26:14.504Z,208.13
2019-06-10T05:27:14.677Z,208.13
2019-06-10T05:28:14.848Z,208.13
2019-06-10T05:29:15.026Z,213.75
2019-06-10T05:30:15.198Z,219.38
2019-06-10T05:31:16.313Z,230.63
2019-06-10T05:32:15.487Z,241.88
2019-06-10T05:33:15.661Z,247.50
2019-06-10T05:34:15.834Z,253.13
2019-06-10T05:35:16.014Z,253.13
2019-06-10T05:36:16.184Z,258.75
2019-06-10T05:37:16.358Z,264.38
2019-06-10T05:38:16.532Z,270.00
2019-06-10T05:39:16.708Z,281.25
2019-06-10T05:40:16.887Z,286.88
2019-06-10T05:41:17.060Z,281.25
2019-06-10T05:42:17.234Z,275.63
2019-06-10T05:43:17.404Z,264.38
2019-06-10T05:44:17.584Z,241.88
2019-06-10T05:45:17.759Z,213.75
2019-06-10T05:46:17.927Z,196.88
2019-06-10T05:47:18.103Z,185.63
2019-06-10T05:48:18.275Z,191.25
2019-06-10T05:49:18.456Z,191.25
2019-06-10T05:50:18.630Z,196.88
2019-06-10T05:51:18.800Z,196.88
2019-06-10T05:52:18.972Z,196.88
2019-06-10T05:53:19.145Z,191.25
2019-06-10T05:54:19.323Z,180.00
2019-06-10T05:55:19.496Z,168.75
2019-06-10T05:56:21.947Z,163.13
2019-06-10T05:57:19.845Z,168.75
2019-06-10T05:58:20.024Z,168.75
2019-06-10T05:59:22.613Z,174.38
2019-06-10T06:00:22.940Z,196.88
2019-06-10T06:01:22.853Z,275.63
2019-06-10T06:02:22.262Z,275.63
2019-06-10T06:03:22.974Z,275.63
2019-06-10T06:04:23.309Z,275.63
2019-06-10T06:05:22.215Z,281.25
2019-06-10T06:06:22.901Z,281.25
2019-06-10T06:07:22.235Z,213.75
2019-06-10T06:08:22.803Z,202.50
2019-06-10T06:09:22.166Z,264.38
2019-06-10T06:10:22.313Z,236.25
2019-06-10T06:11:23.182Z,281.25
2019-06-10T06:12:22.708Z,281.25
2019-06-10T06:13:23.210Z,281.25
2019-06-10T06:14:22.797Z,286.88
2019-06-10T06:15:22.970Z,286.88
2019-06-10T06:16:23.276Z,286.88
2019-06-10T06:17:23.690Z,286.88
2019-06-10T06:18:23.490Z,292.50
2019-06-10T06:19:23.691Z,292.50
2019-06-10T06:20:25.012Z,298.13
2019-06-10T06:23:55.761Z,309.38
2019-06-10T06:24:55.930Z,315.00
2019-06-10T06:25:56.104Z,320.63
2019-06-10T06:26:56.278Z,320.63
2019-06-10T06:27:56.450Z,326.25
2019-06-10T06:28:56.623Z,337.50
2019-06-10T06:29:56.794Z,343.13
2019-06-10T06:30:56.967Z,354.38
2019-06-10T06:31:57.142Z,365.63
2019-06-10T06:32:57.313Z,382.50
2019-06-10T06:33:57.497Z,427.50
2019-06-10T06:34:57.671Z,450.00
2019-06-10T06:35:57.845Z,489.38
2019-06-10T06:36:58.031Z,517.50
2019-06-10T06:37:58.218Z,511.88
2019-06-10T06:38:58.396Z,500.63
2019-06-10T06:39:58.566Z,483.75
2019-06-10T06:40:58.743Z,500.63
2019-06-10T06:41:58.920Z,635.63
2019-06-10T06:42:59.089Z,579.38
2019-06-10T06:43:59.262Z,596.25
2019-06-10T06:44:59.436Z,568.13
2019-06-10T06:46:02.230Z,686.25
2019-06-10T06:46:59.784Z,697.50
2019-06-10T06:47:59.956Z,686.25
2019-06-10T06:49:02.122Z,624.38
2019-06-10T06:50:02.529Z,568.13
2019-06-10T06:51:07.478Z,551.25
2019-06-10T06:52:02.915Z,573.75
2019-06-10T06:53:20.112Z,556.88
2019-06-10T06:54:03.107Z,669.38
2019-06-10T06:55:02.461Z,607.50
2019-06-10T06:56:03.684Z,618.75
2019-06-10T06:57:03.535Z,618.75
2019-06-10T06:58:03.420Z,568.13
2019-06-10T06:59:02.521Z,618.75
2019-06-10T07:00:29.815Z,523.13
2019-06-10T07:01:10.208Z,511.88
2019-06-10T07:02:02.827Z,517.50
2019-06-10T07:03:03.108Z,500.63
2019-06-10T07:04:02.821Z,483.75
2019-06-10T07:05:03.233Z,466.88
2019-06-10T07:06:03.122Z,511.88
2019-06-10T07:07:03.296Z,540.00
2019-06-10T07:08:03.468Z,517.50
2019-06-10T07:09:07.685Z,511.88
2019-06-10T07:10:03.817Z,534.38
2019-06-10T07:11:03.996Z,551.25
2019-06-10T07:12:04.176Z,517.50
2019-06-10T07:13:04.347Z,551.25
2019-06-10T07:14:04.519Z,568.13
2019-06-10T07:15:04.721Z,590.63
2019-06-10T07:16:04.919Z,618.75
2019-06-10T07:17:05.070Z,635.63
2019-06-10T07:18:05.242Z,646.88
2019-06-10T07:19:05.420Z,607.50
2019-06-10T07:20:05.595Z,545.63
2019-06-10T07:21:05.775Z,562.50
2019-06-10T07:22:12.502Z,568.13
2019-06-10T07:23:06.106Z,675.00
2019-06-10T07:24:06.283Z,641.25
2019-06-10T07:25:06.775Z,652.50
2019-06-10T07:26:06.632Z,680.63
2019-06-10T07:27:06.813Z,585.00
2019-06-10T07:28:06.979Z,714.38
2019-06-10T07:29:07.156Z,691.88
2019-06-10T07:30:11.756Z,663.75
2019-06-10T07:31:20.790Z,675.00
2019-06-10T07:32:07.683Z,630.00
2019-06-10T07:33:07.857Z,585.00
2019-06-10T07:34:08.038Z,573.75
2019-06-10T07:35:08.205Z,573.75
2019-06-10T07:36:08.380Z,585.00
2019-06-10T07:37:08.552Z,568.13
2019-06-10T07:38:08.727Z,562.50
2019-06-10T07:39:08.903Z,568.13
2019-06-10T07:40:09.069Z,573.75
2019-06-10T07:41:09.240Z,573.75
2019-06-10T07:42:09.419Z,540.00
2019-06-10T07:43:09.592Z,495.00
2019-06-10T07:44:09.769Z,511.88
2019-06-10T07:45:09.940Z,517.50
2019-06-10T07:46:12.965Z,495.00
2019-06-10T07:47:12.725Z,466.88
2019-06-10T07:48:12.177Z,450.00
2019-06-10T07:49:13.238Z,421.88
2019-06-10T07:50:12.098Z,399.38
2019-06-10T07:51:13.094Z,376.88
2019-06-10T07:52:18.591Z,337.50
2019-06-10T07:53:12.806Z,309.38
2019-06-10T07:54:12.422Z,320.63
2019-06-10T07:55:12.910Z,331.88
2019-06-10T07:56:12.933Z,331.88
2019-06-10T07:57:12.969Z,326.25
2019-06-10T07:58:12.988Z,326.25
2019-06-10T07:59:13.042Z,348.75
2019-06-10T08:00:12.579Z,371.25
2019-06-10T08:01:13.124Z,393.75
2019-06-10T08:02:12.935Z,405.00
2019-06-10T08:03:13.865Z,421.88
2019-06-10T08:04:13.293Z,455.63
2019-06-10T08:05:13.471Z,495.00
2019-06-10T08:06:13.645Z,534.38
2019-06-10T08:07:13.823Z,573.75
2019-06-10T08:08:13.995Z,601.88
2019-06-10T08:09:14.167Z,708.75
2019-06-10T08:10:14.341Z,815.63
2019-06-10T08:11:14.516Z,883.13
2019-06-10T08:12:14.713Z,933.75
2019-06-10T08:13:14.865Z,961.88
2019-06-10T08:14:15.039Z,1006.88
2019-06-10T08:15:15.215Z,1040.63
2019-06-10T08:16:15.388Z,1046.25
2019-06-10T08:17:15.557Z,1001.25
2019-06-10T08:18:15.735Z,1023.75
2019-06-10T08:19:30.269Z,967.50
2019-06-10T08:20:16.084Z,911.25
2019-06-10T08:21:16.262Z,939.38
2019-06-10T08:22:29.904Z,961.88
2019-06-10T08:23:16.624Z,933.75
2019-06-10T08:24:16.799Z,866.25
2019-06-10T08:25:16.975Z,798.75
2019-06-10T08:26:17.150Z,742.50
2019-06-10T08:27:17.324Z,680.63
2019-06-10T08:28:17.504Z,697.50
2019-06-10T08:29:17.672Z,725.63
2019-06-10T08:30:22.984Z,765.00
2019-06-10T08:31:18.024Z,720.00
2019-06-10T08:32:18.195Z,742.50
2019-06-10T08:33:18.375Z,731.25
2019-06-10T08:34:18.552Z,720.00
2019-06-10T08:35:18.728Z,731.25
2019-06-10T08:36:18.904Z,680.63
2019-06-10T08:37:19.081Z,658.13
2019-06-10T08:38:19.253Z,652.50
2019-06-10T08:39:19.429Z,635.63
2019-06-10T08:40:19.601Z,641.25
2019-06-10T08:41:19.778Z,579.38
2019-06-10T08:42:20.018Z,556.88
2019-06-10T08:43:22.436Z,568.13
2019-06-10T08:44:20.311Z,573.75
2019-06-10T08:45:22.636Z,618.75
2019-06-10T08:46:22.560Z,596.25
2019-06-10T08:47:22.834Z,613.13
2019-06-10T08:48:22.754Z,579.38
2019-06-10T08:49:23.684Z,624.38
2019-06-10T08:50:24.628Z,635.63
2019-06-10T08:51:23.602Z,646.88
2019-06-10T08:52:23.698Z,624.38
2019-06-10T08:53:22.714Z,641.25
2019-06-10T08:54:23.437Z,624.38
2019-06-10T08:55:22.824Z,630.00
2019-06-10T08:56:22.598Z,630.00
2019-06-10T08:57:23.867Z,624.38
2019-06-10T08:58:23.277Z,624.38
2019-06-10T08:59:23.206Z,573.75
2019-06-10T09:00:25.534Z,585.00
2019-06-10T09:01:23.284Z,686.25
2019-06-10T09:02:23.461Z,601.88
2019-06-10T09:03:23.651Z,680.63
2019-06-10T09:04:23.805Z,573.75
2019-06-10T09:05:23.982Z,607.50
2019-06-10T09:06:24.163Z,691.88
2019-06-10T09:07:24.331Z,765.00
2019-06-10T09:08:24.510Z,793.13
2019-06-10T09:09:24.680Z,793.13
2019-06-10T09:10:24.871Z,798.75
2019-06-10T09:11:25.024Z,798.75
2019-06-10T09:12:32.482Z,770.63
2019-06-10T09:13:25.398Z,725.63
2019-06-10T09:14:25.559Z,720.00
2019-06-10T09:15:25.736Z,663.75
2019-06-10T09:16:25.911Z,658.13
2019-06-10T09:17:26.087Z,663.75
2019-06-10T09:18:26.261Z,686.25
2019-06-10T09:19:26.433Z,652.50
2019-06-10T09:20:26.624Z,646.88
2019-06-10T09:21:26.807Z,646.88
2019-06-10T09:22:26.994Z,607.50
2019-06-10T09:23:27.149Z,585.00
2019-06-10T09:24:27.351Z,635.63
2019-06-10T09:25:27.494Z,630.00
2019-06-10T09:26:27.648Z,635.63
2019-06-10T09:27:28.212Z,641.25
2019-06-10T09:28:28.010Z,630.00
2019-06-10T09:29:28.193Z,624.38
2019-06-10T09:30:28.640Z,624.38
2019-06-10T09:31:28.520Z,630.00
2019-06-10T09:32:28.693Z,624.38
2019-06-10T09:33:28.868Z,630.00
2019-06-10T09:34:29.056Z,641.25
2019-06-10T09:35:29.238Z,652.50
2019-06-10T09:36:29.765Z,641.25
2019-06-10T09:37:37.176Z,635.63
2019-06-10T09:38:29.720Z,618.75
2019-06-10T09:39:32.718Z,641.25
2019-06-10T09:40:33.186Z,646.88
2019-06-10T09:41:39.447Z,630.00
2019-06-10T09:42:30.419Z,618.75
2019-06-10T09:43:33.032Z,618.75
2019-06-10T09:44:33.239Z,601.88
2019-06-10T09:45:33.264Z,607.50
2019-06-10T09:46:33.134Z,590.63
2019-06-10T09:47:34.018Z,601.88
2019-06-10T09:48:33.575Z,601.88
2019-06-10T09:49:33.075Z,607.50
2019-06-10T09:50:33.373Z,613.13
2019-06-10T09:51:32.553Z,624.38
2019-06-10T09:52:32.814Z,635.63
2019-06-10T09:53:39.294Z,658.13
2019-06-10T09:54:33.523Z,669.38
2019-06-10T09:55:32.937Z,703.13
2019-06-10T09:56:33.197Z,601.88
2019-06-10T09:57:33.030Z,573.75
2019-06-10T09:58:33.264Z,607.50
2019-06-10T09:59:33.382Z,703.13
2019-06-10T10:00:33.573Z,697.50
2019-06-10T10:01:33.761Z,691.88
2019-06-10T10:02:33.919Z,697.50
2019-06-10T10:03:34.102Z,900.00
2019-06-10T10:04:37.392Z,1423.13
2019-06-10T10:05:34.448Z,1991.25
2019-06-10T10:06:34.627Z,2418.75
2019-06-10T10:07:34.800Z,2559.38
2019-06-10T10:08:34.980Z,2587.50
2019-06-10T10:09:37.120Z,2598.75
2019-06-10T10:10:35.330Z,2649.38
2019-06-10T10:11:35.505Z,720.00
2019-06-10T10:12:35.682Z,618.75
2019-06-10T10:13:35.858Z,663.75
2019-06-10T10:14:36.035Z,2705.63
2019-06-10T10:15:36.208Z,2756.25
2019-06-10T10:16:36.763Z,2857.50
2019-06-10T10:17:36.512Z,787.50
2019-06-10T10:18:36.697Z,804.38
2019-06-10T10:19:36.866Z,759.38
2019-06-10T10:20:37.043Z,787.50
2019-06-10T10:21:37.252Z,866.25
2019-06-10T10:22:37.398Z,798.75
2019-06-10T10:23:51.125Z,2784.38
2019-06-10T10:24:37.743Z,2885.63
2019-06-10T10:25:37.917Z,3003.75
2019-06-10T10:26:38.091Z,2840.63
2019-06-10T10:27:38.282Z,2970.00
2019-06-10T10:28:38.448Z,2992.50
2019-06-10T10:29:38.619Z,2857.50
2019-06-10T10:30:38.796Z,3082.50
2019-06-10T10:31:38.969Z,1828.13
2019-06-10T10:32:39.135Z,3121.88
2019-06-10T10:33:39.314Z,855.00
2019-06-10T10:34:39.522Z,900.00
2019-06-10T10:35:39.667Z,978.75
2019-06-10T10:36:39.840Z,2655.00
2019-06-10T10:37:40.019Z,3178.13
2019-06-10T10:38:40.191Z,1732.50
2019-06-10T10:39:40.369Z,838.13
2019-06-10T10:40:43.394Z,815.63
2019-06-10T10:41:43.176Z,838.13
2019-06-10T10:42:47.685Z,888.75
2019-06-10T10:43:43.684Z,950.63
2019-06-10T10:44:44.366Z,995.63
2019-06-10T10:45:43.589Z,3144.38
2019-06-10T10:46:42.740Z,3048.75
2019-06-10T10:47:42.797Z,2812.50
2019-06-10T10:48:42.975Z,3121.88
2019-06-10T10:49:42.825Z,3060.00
2019-06-10T10:50:43.850Z,3240.00
2019-06-10T10:51:42.911Z,1141.88
2019-06-10T10:52:44.237Z,1288.13
2019-06-10T10:53:48.238Z,3465.00
2019-06-10T10:54:44.746Z,3673.13
2019-06-10T10:55:43.820Z,1591.88
2019-06-10T10:56:45.715Z,1648.13
2019-06-10T10:57:43.621Z,1035.00
2019-06-10T10:58:46.993Z,928.13
2019-06-10T10:59:45.082Z,916.88
2019-06-10T11:00:45.466Z,978.75
2019-06-10T11:01:45.665Z,1091.25
2019-06-10T11:02:46.026Z,1231.88
2019-06-10T11:03:47.312Z,1608.75
2019-06-10T11:04:46.213Z,1558.13
2019-06-10T11:05:48.094Z,1552.50
2019-06-10T11:06:46.198Z,1929.38
2019-06-10T11:07:45.902Z,2896.88
2019-06-10T11:08:48.039Z,1147.50
2019-06-10T11:09:46.644Z,1091.25
2019-06-10T11:10:47.873Z,1102.50
2019-06-10T11:11:47.206Z,1153.13
2019-06-10T11:12:46.991Z,1192.50
2019-06-10T11:13:47.406Z,1310.63
2019-06-10T11:14:47.004Z,1321.88
2019-06-10T11:15:47.279Z,1428.75
2019-06-10T11:16:47.209Z,1440.00
2019-06-10T11:17:47.277Z,1350.00
2019-06-10T11:18:47.359Z,1513.13
2019-06-10T11:19:47.540Z,3324.38
2019-06-10T11:20:47.715Z,3352.50
2019-06-10T11:21:47.892Z,3414.38
2019-06-10T11:22:48.070Z,3521.25
2019-06-10T11:23:48.250Z,2795.63
2019-06-10T11:24:49.274Z,3622.50
2019-06-10T11:25:49.864Z,3706.88
2019-06-10T11:26:49.885Z,2981.25
2019-06-10T11:27:50.026Z,939.38
2019-06-10T11:28:49.512Z,1288.13
2019-06-10T11:29:50.276Z,3813.75
2019-06-10T11:30:49.555Z,3768.75
2019-06-10T11:31:50.581Z,3785.63
2019-06-10T11:32:50.678Z,3774.38
2019-06-10T11:33:51.260Z,2227.50
2019-06-10T11:34:50.207Z,3791.25
2019-06-10T11:35:51.493Z,3712.50
2019-06-10T11:36:53.291Z,3600.00
2019-06-10T11:37:51.736Z,3459.38
2019-06-10T11:38:53.737Z,3555.00
2019-06-10T11:39:52.224Z,3448.13
2019-06-10T11:40:55.982Z,3391.88
2019-06-10T11:41:53.286Z,3712.50
2019-06-10T11:42:56.363Z,3701.25
2019-06-10T11:43:56.071Z,3813.75
2019-06-10T11:44:57.326Z,3982.50
2019-06-10T11:45:57.634Z,3971.25
2019-06-10T11:46:54.853Z,4033.13
2019-06-10T11:47:55.228Z,4050.00
2019-06-10T11:48:55.654Z,4111.88
2019-06-10T11:49:54.947Z,4123.13
2019-06-10T11:50:56.730Z,3757.50
2019-06-10T11:51:55.971Z,3065.63
2019-06-10T11:52:57.099Z,4021.88
2019-06-10T11:53:55.981Z,3943.13
2019-06-10T11:55:05.564Z,3791.25
2019-06-10T11:55:54.050Z,3695.63
2019-06-10T11:56:56.451Z,2925.00
2019-06-10T11:57:56.495Z,2047.50
2019-06-10T11:58:58.318Z,1563.75
2019-06-10T11:59:56.093Z,1456.88
2019-06-10T12:00:58.511Z,1333.13
2019-06-10T12:01:59.208Z,2008.13
2019-06-10T12:02:58.196Z,1175.63
2019-06-10T12:03:58.496Z,1175.63
2019-06-10T12:04:57.114Z,1265.63
2019-06-10T12:05:59.258Z,2722.50
2019-06-10T12:06:57.060Z,1766.25
2019-06-10T12:07:59.492Z,1260.00
2019-06-10T12:09:00.404Z,1676.25
2019-06-10T12:09:59.110Z,1040.63
2019-06-10T12:11:00.283Z,770.63
2019-06-10T12:12:01.422Z,568.13
2019-06-10T12:13:00.896Z,500.63
2019-06-10T12:14:02.054Z,466.88
2019-06-10T12:14:59.515Z,472.50
2019-06-10T12:17:29.180Z,585.00
2019-06-10T12:18:05.282Z,725.63
2019-06-10T12:18:58.941Z,916.88
2019-06-10T12:20:02.532Z,1293.75
2019-06-10T12:21:00.394Z,1659.38
2019-06-10T12:22:02.428Z,1456.88
2019-06-10T12:23:02.097Z,2435.63
2019-06-10T12:24:02.420Z,1276.88
2019-06-10T12:25:27.269Z,1524.38
2019-06-10T12:26:00.916Z,1563.75
2019-06-10T12:27:01.391Z,1490.63
2019-06-10T12:28:04.549Z,1597.50
2019-06-10T12:29:01.731Z,4528.13
2019-06-10T12:30:04.282Z,4410.00
2019-06-10T12:31:04.000Z,4336.88
2019-06-10T12:32:06.479Z,1546.88
2019-06-10T12:33:03.034Z,3982.50
2019-06-10T12:34:02.518Z,3330.00
2019-06-10T12:35:05.019Z,3403.13
2019-06-10T12:36:03.993Z,1158.75
2019-06-10T12:37:10.346Z,1991.25
2019-06-10T12:38:05.857Z,1445.63
2019-06-10T12:39:09.857Z,3656.25
2019-06-10T12:40:05.488Z,4286.25
2019-06-10T12:41:08.053Z,4224.38
2019-06-10T12:42:06.120Z,4241.25
2019-06-10T12:43:05.067Z,4291.88
2019-06-10T12:44:03.370Z,4331.25
2019-06-10T12:45:05.932Z,4303.13
2019-06-10T12:46:03.453Z,4365.00
2019-06-10T12:47:06.346Z,1113.75
2019-06-10T12:48:06.329Z,1153.13
2019-06-10T12:49:08.190Z,1704.38
2019-06-10T12:50:05.404Z,1243.13
2019-06-10T12:51:08.783Z,961.88
2019-06-10T12:52:07.196Z,855.00
2019-06-10T12:53:06.908Z,871.88
2019-06-10T12:54:06.188Z,888.75
2019-06-10T12:55:04.756Z,911.25
2019-06-10T12:56:10.088Z,916.88
2019-06-10T12:57:06.848Z,1361.25
2019-06-10T12:58:06.054Z,900.00
2019-06-10T12:59:09.615Z,776.25
2019-06-10T13:00:17.475Z,826.88
2019-06-10T13:01:06.322Z,748.13
2019-06-10T13:02:17.761Z,826.88
2019-06-10T13:03:06.235Z,545.63
2019-06-10T13:04:07.957Z,472.50
2019-06-10T13:05:07.433Z,438.75
2019-06-10T13:06:09.007Z,405.00
2019-06-10T13:07:08.805Z,371.25
2019-06-10T13:08:08.053Z,365.63
2019-06-10T13:09:08.071Z,393.75
2019-06-10T13:10:07.946Z,450.00
2019-06-10T13:11:08.332Z,511.88
2019-06-10T13:12:08.233Z,551.25
2019-06-10T13:13:09.297Z,545.63
2019-06-10T13:14:08.586Z,573.75
2019-06-10T13:15:08.925Z,630.00
2019-06-10T13:16:11.397Z,658.13
2019-06-10T13:17:08.746Z,675.00
2019-06-10T13:18:13.445Z,697.50
2019-06-10T13:19:09.100Z,714.38
2019-06-10T13:20:10.414Z,708.75
2019-06-10T13:21:13.648Z,630.00
2019-06-10T13:22:09.634Z,528.75
2019-06-10T13:23:20.358Z,483.75
2019-06-10T13:24:10.025Z,466.88
2019-06-10T13:25:12.727Z,489.38
2019-06-10T13:26:15.779Z,528.75
2019-06-10T13:27:10.957Z,579.38
2019-06-10T13:28:10.739Z,646.88
2019-06-10T13:29:14.964Z,731.25
2019-06-10T13:30:11.098Z,720.00
2019-06-10T13:31:11.276Z,686.25
2019-06-10T13:32:11.453Z,663.75
2019-06-10T13:33:14.430Z,669.38
2019-06-10T13:34:14.554Z,697.50
2019-06-10T13:35:12.571Z,748.13
2019-06-10T13:36:12.161Z,798.75
2019-06-10T13:37:16.014Z,843.75
2019-06-10T13:38:12.522Z,888.75
2019-06-10T13:39:13.461Z,939.38
2019-06-10T13:40:13.066Z,995.63
2019-06-10T13:41:13.050Z,1029.38
2019-06-10T13:42:14.383Z,1164.38
2019-06-10T13:43:13.404Z,4033.13
2019-06-10T13:44:16.503Z,3993.75
2019-06-10T13:45:13.763Z,3943.13
2019-06-10T13:46:13.986Z,3931.88
2019-06-10T13:47:14.995Z,3926.25
2019-06-10T13:48:14.952Z,3853.13
2019-06-10T13:49:15.487Z,3988.13
2019-06-10T13:50:14.639Z,3960.00
2019-06-10T13:51:15.754Z,3948.75
2019-06-10T13:52:16.891Z,3774.38
2019-06-10T13:53:15.145Z,3768.75
2019-06-10T13:54:15.326Z,3706.88
2019-06-10T13:55:15.499Z,1586.25
2019-06-10T13:56:37.785Z,1046.25
2019-06-10T13:57:15.842Z,866.25
2019-06-10T13:58:16.011Z,798.75
2019-06-10T13:59:16.205Z,748.13
2019-06-10T14:00:16.375Z,680.63
2019-06-10T14:01:21.379Z,630.00
2019-06-10T14:02:16.730Z,562.50
2019-06-10T14:03:16.907Z,528.75
2019-06-10T14:04:21.858Z,540.00
2019-06-10T14:05:18.462Z,500.63
2019-06-10T14:06:34.206Z,427.50
2019-06-10T14:07:17.770Z,393.75
2019-06-10T14:08:17.823Z,410.63
2019-06-10T14:09:18.005Z,466.88
2019-06-10T14:10:19.186Z,528.75
2019-06-10T14:11:19.029Z,568.13
2019-06-10T14:12:18.539Z,568.13
2019-06-10T14:13:18.710Z,562.50
2019-06-10T14:14:18.889Z,540.00
2019-06-10T14:15:19.077Z,528.75
2019-06-10T14:16:19.259Z,478.13
2019-06-10T14:17:19.858Z,472.50
2019-06-10T14:18:19.611Z,450.00
2019-06-10T14:19:19.788Z,433.13
2019-06-10T14:20:19.966Z,416.25
2019-06-10T14:21:23.174Z,410.63
2019-06-10T14:22:22.821Z,410.63
2019-06-10T14:23:21.998Z,405.00
2019-06-10T14:24:22.787Z,388.13
2019-06-10T14:25:23.286Z,365.63
2019-06-10T14:26:34.556Z,354.38
2019-06-10T14:27:22.269Z,331.88
2019-06-10T14:28:38.057Z,286.88
2019-06-10T14:29:21.570Z,258.75
2019-06-10T14:30:23.005Z,253.13
2019-06-10T14:31:39.420Z,247.50
2019-06-10T14:32:22.514Z,225.00
2019-06-10T14:33:23.318Z,219.38
2019-06-10T14:34:22.614Z,225.00
2019-06-10T14:35:22.708Z,236.25
2019-06-10T14:36:22.803Z,247.50
2019-06-10T14:37:33.102Z,258.75
2019-06-10T14:38:23.154Z,270.00
2019-06-10T14:39:23.330Z,275.63
2019-06-10T14:40:25.257Z,275.63
2019-06-10T14:41:26.024Z,270.00
2019-06-10T14:42:23.853Z,264.38
2019-06-10T14:43:24.029Z,258.75
2019-06-10T14:44:24.211Z,258.75
2019-06-10T14:45:24.385Z,264.38
2019-06-10T14:46:24.559Z,275.63
2019-06-10T14:47:24.731Z,281.25
2019-06-10T14:48:24.914Z,264.38
2019-06-10T14:49:25.102Z,241.88
2019-06-10T14:50:25.288Z,219.38
2019-06-10T14:51:25.449Z,208.13
2019-06-10T14:52:25.636Z,196.88
2019-06-10T14:53:25.785Z,191.25
2019-06-10T14:54:25.961Z,196.88
2019-06-10T14:55:26.122Z,191.25
2019-06-10T14:56:26.295Z,185.63
2019-06-10T14:57:26.471Z,180.00
2019-06-10T14:58:26.639Z,168.75
2019-06-10T14:59:26.795Z,168.75
2019-06-10T15:00:26.975Z,163.13
2019-06-10T15:01:27.177Z,157.50
2019-06-10T15:02:27.333Z,157.50
2019-06-10T15:03:27.500Z,163.13
2019-06-10T15:04:27.660Z,163.13
2019-06-10T15:05:27.819Z,163.13
2019-06-10T15:06:27.976Z,163.13
2019-06-10T15:07:28.149Z,163.13
2019-06-10T15:08:28.329Z,157.50
2019-06-10T15:09:28.491Z,151.88
2019-06-10T15:12:02.837Z,163.13
2019-06-10T15:13:02.223Z,174.38
2019-06-10T15:14:02.826Z,174.38
2019-06-10T15:15:01.295Z,168.75
2019-06-10T15:16:04.452Z,157.50
2019-06-10T15:17:02.764Z,157.50
2019-06-10T15:18:02.967Z,157.50
2019-06-10T15:19:11.777Z,168.75
2019-06-10T15:20:03.704Z,174.38
2019-06-10T15:21:02.839Z,180.00
2019-06-10T15:22:03.006Z,185.63
2019-06-10T15:23:02.709Z,185.63
2019-06-10T15:24:03.151Z,185.63
2019-06-10T15:25:03.336Z,180.00
2019-06-10T15:26:03.224Z,180.00
2019-06-10T15:27:12.699Z,168.75
2019-06-10T15:28:03.574Z,163.13
2019-06-10T15:29:03.757Z,157.50
2019-06-10T15:30:11.671Z,151.88
2019-06-10T15:31:04.115Z,140.63
2019-06-10T15:32:13.980Z,129.38
2019-06-10T15:33:04.457Z,118.13
2019-06-10T15:34:04.636Z,118.13
2019-06-10T15:35:04.809Z,118.13
2019-06-10T15:36:04.980Z,118.13
2019-06-10T15:37:05.162Z,123.75
2019-06-10T15:38:05.337Z,118.13
2019-06-10T15:39:05.499Z,112.50
2019-06-10T15:40:05.679Z,106.88
2019-06-10T15:41:05.847Z,106.88
2019-06-10T15:42:06.020Z,106.88
2019-06-10T15:43:06.475Z,118.13
2019-06-10T15:44:06.368Z,135.00
2019-06-10T15:45:06.542Z,157.50
2019-06-10T15:46:06.710Z,174.38
2019-06-10T15:47:06.886Z,191.25
2019-06-10T15:48:07.074Z,196.88
2019-06-10T15:49:07.250Z,196.88
2019-06-10T15:50:07.427Z,196.88
2019-06-10T15:51:07.602Z,196.88
2019-06-10T15:52:07.776Z,185.63
2019-06-10T15:53:07.953Z,163.13
2019-06-10T15:54:08.128Z,146.25
2019-06-10T15:55:08.304Z,135.00
2019-06-10T15:56:21.421Z,129.38
2019-06-10T15:57:25.535Z,135.00
2019-06-10T15:58:08.822Z,129.38
2019-06-10T15:59:09.000Z,129.38
2019-06-10T16:00:12.191Z,129.38
2019-06-10T16:01:09.396Z,129.38
2019-06-10T16:02:09.523Z,135.00
2019-06-10T16:03:09.696Z,140.63
2019-06-10T16:04:09.870Z,151.88
2019-06-10T16:05:12.654Z,174.38
2019-06-10T16:06:10.223Z,191.25
2019-06-10T16:07:13.094Z,174.38
2019-06-10T16:08:12.579Z,151.88
2019-06-10T16:09:12.547Z,140.63
2019-06-10T16:10:12.182Z,151.88
2019-06-10T16:11:13.746Z,168.75
2019-06-10T16:12:14.715Z,174.38
2019-06-10T16:13:12.547Z,174.38
2019-06-10T16:14:12.575Z,180.00
2019-06-10T16:15:13.372Z,174.38
2019-06-10T16:16:12.817Z,168.75
2019-06-10T16:17:12.887Z,168.75
2019-06-10T16:18:13.654Z,163.13
2019-06-10T16:19:13.290Z,151.88
2019-06-10T16:20:14.274Z,135.00
2019-06-10T16:21:15.199Z,118.13
2019-06-10T16:22:14.197Z,106.88
2019-06-10T16:23:13.846Z,101.25
2019-06-10T16:24:15.129Z,95.63
2019-06-10T16:25:14.336Z,95.63
2019-06-10T16:26:14.854Z,95.63
2019-06-10T16:27:14.189Z,95.63
2019-06-10T16:28:14.314Z,95.63
2019-06-10T16:29:15.012Z,101.25
2019-06-10T16:30:14.659Z,95.63
2019-06-10T16:31:15.286Z,90.00
2019-06-10T16:32:14.783Z,84.38